createdAt,value
2018-07-19T00:00:39.578Z,15.40
2018-07-19T00:03:08.117Z,13.87
2018-07-19T00:05:36.646Z,15.50
2018-07-19T00:08:06.198Z,14.40
2018-07-19T00:10:41.017Z,14.80
2018-07-19T00:13:09.545Z,13.45
2018-07-19T00:21:24.456Z,14.70
2018-07-19T00:23:53.561Z,14.90
2018-07-19T00:26:22.054Z,14.83
2018-07-19T00:28:50.589Z,16.33
2018-07-19T00:31:19.637Z,15.40
2018-07-19T00:33:48.333Z,15.20
2018-07-19T00:36:18.695Z,15.58
2018-07-19T00:38:47.221Z,15.93
2018-07-19T00:41:17.445Z,15.35
2018-07-19T00:43:45.969Z,14.63
2018-07-19T00:46:15.889Z,16.02
2018-07-19T00:48:44.388Z,14.98
2018-07-19T00:51:12.866Z,14.90
2018-07-19T00:53:41.401Z,14.70
2018-07-19T00:56:09.925Z,14.90
2018-07-19T01:07:17.449Z,15.03
2018-07-19T01:09:45.969Z,15.30
2018-07-19T01:21:00.675Z,14.60
2018-07-19T01:23:29.155Z,15.90
2018-07-19T01:25:57.644Z,15.50
2018-07-19T01:28:26.170Z,16.30
2018-07-19T01:30:54.685Z,16.90
2018-07-19T01:33:23.173Z,15.25
2018-07-19T01:35:51.701Z,15.10
2018-07-19T01:38:20.197Z,15.73
2018-07-19T01:40:48.704Z,15.03
2018-07-19T01:43:17.910Z,15.60
2018-07-19T01:45:46.429Z,16.50
2018-07-19T01:48:16.457Z,14.80
2018-07-19T01:50:45.001Z,16.33
2018-07-19T01:53:13.521Z,15.08
2018-07-19T01:55:42.032Z,15.93
2018-07-19T01:58:10.598Z,16.07
2018-07-19T02:00:39.926Z,16.10
2018-07-19T02:03:08.463Z,16.40
2018-07-19T02:05:37.421Z,16.03
2018-07-19T02:08:05.954Z,17.73
2018-07-19T02:10:34.498Z,16.60
2018-07-19T02:13:03.044Z,15.80
2018-07-19T02:15:31.565Z,16.60
2018-07-19T02:18:00.102Z,17.10
2018-07-19T02:20:28.642Z,16.20
2018-07-19T02:22:57.629Z,17.20
2018-07-19T02:25:26.157Z,17.17
2018-07-19T02:27:55.378Z,18.00
2018-07-19T02:30:23.866Z,17.77
2018-07-19T02:32:52.518Z,17.33
2018-07-19T02:35:21.089Z,18.07
2018-07-19T02:37:49.638Z,18.20
2018-07-19T02:40:19.406Z,16.55
2018-07-19T02:42:47.928Z,17.60
2018-07-19T02:45:16.541Z,18.25
2018-07-19T02:47:45.069Z,17.90
2018-07-19T02:50:13.951Z,17.30
2018-07-19T02:52:42.441Z,18.90
2018-07-19T02:55:10.961Z,18.90
2018-07-19T02:57:39.474Z,18.15
2018-07-19T03:00:08.033Z,17.97
2018-07-19T03:02:37.582Z,17.97
2018-07-19T03:05:06.157Z,17.80
2018-07-19T03:07:34.676Z,17.53
2018-07-19T03:10:03.246Z,18.90
2018-07-19T03:12:31.813Z,18.40
2018-07-19T03:15:00.306Z,17.93
2018-07-19T03:17:28.798Z,18.20
2018-07-19T03:19:57.330Z,18.60
2018-07-19T03:22:25.802Z,17.47
2018-07-19T03:24:54.293Z,17.57
2018-07-19T03:27:22.806Z,18.55
2018-07-19T03:29:51.283Z,18.80
2018-07-19T03:32:19.785Z,19.40
2018-07-19T03:34:48.882Z,17.43
2018-07-19T03:37:17.397Z,17.33
2018-07-19T03:39:46.091Z,18.03
2018-07-19T04:04:27.513Z,17.10
2018-07-19T04:06:56.050Z,19.00
2018-07-19T04:09:24.578Z,19.00
2018-07-19T04:11:53.094Z,17.93
2018-07-19T04:14:21.638Z,19.50
2018-07-19T04:16:50.158Z,17.63
2018-07-19T04:19:18.662Z,18.00
2018-07-19T04:21:47.630Z,19.50
2018-07-19T04:24:16.450Z,18.45
2018-07-19T04:26:45.162Z,18.37
2018-07-19T04:29:15.193Z,17.73
2018-07-19T04:31:43.688Z,19.37
2018-07-19T04:34:12.222Z,18.30
2018-07-19T04:36:40.757Z,18.83
2018-07-19T04:39:09.825Z,19.57
2018-07-19T04:41:38.350Z,16.93
2018-07-19T04:44:07.381Z,17.37
2018-07-19T04:46:36.016Z,17.00
2018-07-19T04:49:05.477Z,17.77
2018-07-19T04:51:34.046Z,17.90
2018-07-19T04:54:02.645Z,17.80
2018-07-19T04:56:31.313Z,19.42
2018-07-19T04:58:59.855Z,19.23
2018-07-19T05:01:28.400Z,18.40
2018-07-19T05:03:57.198Z,18.07
2018-07-19T05:06:26.794Z,17.98
2018-07-19T05:08:55.785Z,19.15
2018-07-19T05:11:24.321Z,18.40
2018-07-19T05:13:52.609Z,18.60
2018-07-19T05:16:21.146Z,18.07
2018-07-19T05:18:49.682Z,17.43
2018-07-19T05:21:18.254Z,18.30
2018-07-19T05:23:46.453Z,17.90
2018-07-19T05:45:07.305Z,13.77
2018-07-19T05:47:35.824Z,11.97
2018-07-19T05:50:04.655Z,12.37
2018-07-19T05:52:33.353Z,13.50
2018-07-19T05:55:02.119Z,12.30
2018-07-19T05:57:30.585Z,10.98
2018-07-19T05:59:59.111Z,9.00
2018-07-19T06:02:27.945Z,10.23
2018-07-19T06:04:56.436Z,8.90
2018-07-19T06:07:25.462Z,8.70
2018-07-19T06:09:53.985Z,9.47
2018-07-19T06:12:22.529Z,8.20
2018-07-19T06:14:51.089Z,8.30
2018-07-19T06:17:19.609Z,8.93
2018-07-19T06:19:48.133Z,8.50
2018-07-19T06:22:17.466Z,8.23
2018-07-19T06:24:47.135Z,7.90
2018-07-19T06:27:17.386Z,7.20
2018-07-19T06:29:45.902Z,7.63
2018-07-19T06:32:15.497Z,7.20
2018-07-19T06:34:44.017Z,7.97
2018-07-19T06:37:12.531Z,7.60
2018-07-19T06:39:41.089Z,7.57
2018-07-19T06:42:09.625Z,6.90
2018-07-19T06:50:23.273Z,6.25
2018-07-19T06:52:51.774Z,6.23
2018-07-19T06:55:20.348Z,5.65
2018-07-19T06:57:48.926Z,6.63
2018-07-19T07:00:17.128Z,5.80
2018-07-19T07:02:45.709Z,6.05
2018-07-19T07:23:37.220Z,5.95
2018-07-19T07:26:06.078Z,4.77
2018-07-19T07:28:34.657Z,5.30
2018-07-19T07:31:05.135Z,4.50
2018-07-19T07:33:33.642Z,5.05
2018-07-19T07:36:02.198Z,4.90
2018-07-19T07:38:30.769Z,5.20
2018-07-19T07:40:59.431Z,5.13
2018-07-19T07:43:27.946Z,4.37
2018-07-19T07:45:56.961Z,4.40
2018-07-19T07:48:25.474Z,4.47
2018-07-19T07:50:56.786Z,4.57
2018-07-19T07:53:25.425Z,4.10
2018-07-19T07:55:53.977Z,4.20
2018-07-19T07:58:22.685Z,3.60
2018-07-19T08:00:51.628Z,5.20
2018-07-19T08:03:21.818Z,7.40
2018-07-19T08:05:50.312Z,32.07
2018-07-19T08:08:19.339Z,4.30
2018-07-19T08:10:47.660Z,4.63
2018-07-19T08:13:16.621Z,4.50
2018-07-19T08:15:45.493Z,5.70
2018-07-19T08:18:15.554Z,4.53
2018-07-19T08:20:43.720Z,4.30
2018-07-19T08:23:12.293Z,3.77
2018-07-19T08:25:41.181Z,3.97
2018-07-19T08:28:09.797Z,3.90
2018-07-19T08:36:21.909Z,4.03
2018-07-19T08:38:51.145Z,3.53
2018-07-19T08:41:21.002Z,4.20
2018-07-19T08:43:50.032Z,3.40
2018-07-19T08:46:19.750Z,3.67
2018-07-19T08:48:48.737Z,3.33
2018-07-19T08:51:17.262Z,3.20
2018-07-19T08:53:47.137Z,3.37
2018-07-19T08:56:26.465Z,3.40
2018-07-19T08:58:56.646Z,3.03
2018-07-19T09:01:26.996Z,3.33
2018-07-19T09:03:56.728Z,3.27
2018-07-19T09:06:26.450Z,3.53
2018-07-19T09:09:07.663Z,3.47
2018-07-19T09:11:36.296Z,2.73
2018-07-19T09:14:06.386Z,3.40
2018-07-19T09:25:22.978Z,2.90
2018-07-19T09:27:54.811Z,3.20
2018-07-19T09:30:24.022Z,3.06
2018-07-19T09:32:53.723Z,3.03
2018-07-19T09:35:22.345Z,3.07
2018-07-19T09:37:52.480Z,3.50
2018-07-19T09:40:25.137Z,2.97
2018-07-19T09:43:01.521Z,2.80
2018-07-19T09:45:37.134Z,3.20
2018-07-19T09:50:49.165Z,3.23
2018-07-19T09:53:21.335Z,3.13
2018-07-19T09:55:54.848Z,3.47
2018-07-19T09:58:23.429Z,3.27
2018-07-19T10:00:57.433Z,3.43
2018-07-19T10:03:26.019Z,2.70
2018-07-19T10:05:54.543Z,3.20
2018-07-19T10:08:23.114Z,2.80
2018-07-19T10:10:51.669Z,3.23
2018-07-19T10:13:21.174Z,3.43
2018-07-19T10:15:50.295Z,2.97
2018-07-19T10:18:18.594Z,3.30
2018-07-19T10:20:47.111Z,4.10
2018-07-19T10:23:17.442Z,3.10
2018-07-19T10:25:46.021Z,3.43
2018-07-19T10:48:21.057Z,4.12
2018-07-19T10:50:49.682Z,4.40
2018-07-19T10:53:18.553Z,4.13
2018-07-19T10:55:47.065Z,3.60
2018-07-19T10:58:16.526Z,4.10
2018-07-19T11:00:45.042Z,4.30
2018-07-19T11:03:13.604Z,4.35
2018-07-19T11:05:42.926Z,4.53
2018-07-19T11:08:11.444Z,4.20
2018-07-19T11:10:40.017Z,3.73
2018-07-19T11:13:08.577Z,3.92
2018-07-19T11:15:37.101Z,3.70
2018-07-19T11:18:05.722Z,4.13
2018-07-19T11:20:35.253Z,6.05
2018-07-19T11:23:03.762Z,4.03
2018-07-19T11:25:32.252Z,4.10
2018-07-19T11:28:01.143Z,4.30
2018-07-19T11:30:30.547Z,4.10
2018-07-19T11:32:59.135Z,4.17
2018-07-19T11:35:27.715Z,4.23
2018-07-19T11:37:56.246Z,4.07
2018-07-19T11:40:25.367Z,4.13
2018-07-19T11:42:53.895Z,4.40
2018-07-19T11:45:22.384Z,4.37
2018-07-19T11:47:50.962Z,3.87
2018-07-19T11:50:19.244Z,4.30
2018-07-19T11:52:47.770Z,3.70
2018-07-19T11:55:16.773Z,5.10
2018-07-19T11:57:45.282Z,3.83
2018-07-19T12:00:14.368Z,4.30
2018-07-19T12:02:43.693Z,4.10
2018-07-19T12:05:12.307Z,4.13
2018-07-19T12:07:40.794Z,5.23
2018-07-19T12:10:09.318Z,3.83
2018-07-19T12:12:38.150Z,3.83
2018-07-19T12:15:06.743Z,4.00
2018-07-19T12:17:35.292Z,4.03
2018-07-19T12:20:03.522Z,4.20
2018-07-19T12:22:32.516Z,4.10
2018-07-19T12:25:00.977Z,4.30
2018-07-19T12:27:29.524Z,4.25
2018-07-19T12:30:00.912Z,3.77
2018-07-19T12:32:29.458Z,3.90
2018-07-19T12:34:58.358Z,3.60
2018-07-19T12:37:26.854Z,4.03
2018-07-19T12:39:55.334Z,4.17
2018-07-19T12:42:23.826Z,4.43
2018-07-19T12:44:52.357Z,4.33
2018-07-19T12:47:20.843Z,3.95
2018-07-19T12:49:49.495Z,4.47
2018-07-19T12:52:17.974Z,4.77
2018-07-19T12:54:46.485Z,4.23
2018-07-19T13:07:07.390Z,4.15
2018-07-19T13:09:35.917Z,3.70
2018-07-19T13:12:04.805Z,4.50
2018-07-19T13:14:33.450Z,4.27
2018-07-19T13:17:02.033Z,4.80
2018-07-19T13:19:31.338Z,3.70
2018-07-19T13:22:01.367Z,4.40
2018-07-19T13:24:30.216Z,4.17
2018-07-19T13:26:58.803Z,4.83
2018-07-19T13:29:28.029Z,4.10
2018-07-19T13:31:56.561Z,4.60
2018-07-19T13:34:25.258Z,4.40
2018-07-19T13:36:54.045Z,4.77
2018-07-19T13:39:22.565Z,4.53
2018-07-19T13:41:51.174Z,4.17
2018-07-19T13:44:20.594Z,3.80
2018-07-19T13:46:49.168Z,4.83
2018-07-19T13:49:18.483Z,4.40
2018-07-19T13:51:47.553Z,4.27
2018-07-19T13:54:28.598Z,4.00
2018-07-19T13:56:57.574Z,4.30
2018-07-19T13:59:26.034Z,4.15
2018-07-19T14:01:59.571Z,3.90
2018-07-19T14:04:28.098Z,4.27
2018-07-19T14:06:56.609Z,3.90
2018-07-19T14:09:25.289Z,3.95
2018-07-19T14:11:53.533Z,4.27
2018-07-19T14:14:22.066Z,4.30
2018-07-19T14:16:51.442Z,3.87
2018-07-19T14:19:20.164Z,3.77
2018-07-19T14:21:48.769Z,4.30
2018-07-19T14:24:17.554Z,4.20
2018-07-19T14:26:46.702Z,3.70
2018-07-19T14:50:09.339Z,3.90
2018-07-19T14:52:43.880Z,4.27
2018-07-19T14:55:12.637Z,3.50
2018-07-19T14:57:41.147Z,3.60
2018-07-19T15:00:10.109Z,3.93
2018-07-19T15:02:38.666Z,4.03
2018-07-19T15:05:07.210Z,3.87
2018-07-19T15:07:36.563Z,3.60
2018-07-19T15:10:06.022Z,4.27
2018-07-19T15:12:34.590Z,4.10
2018-07-19T15:15:03.145Z,3.73
2018-07-19T15:17:31.682Z,4.00
2018-07-19T15:19:59.904Z,3.83
2018-07-19T15:22:28.525Z,3.65
2018-07-19T15:24:57.056Z,4.27
2018-07-19T15:27:26.585Z,3.42
2018-07-19T15:29:55.303Z,4.13
2018-07-19T15:32:23.529Z,3.90
2018-07-19T15:34:52.059Z,3.80
2018-07-19T15:37:20.597Z,3.40
2018-07-19T15:39:49.261Z,4.10
2018-07-19T15:42:18.515Z,3.77
2018-07-19T15:44:47.104Z,3.83
2018-07-19T15:47:17.407Z,3.70
2018-07-19T15:49:45.967Z,3.67
2018-07-19T15:52:15.940Z,3.72
2018-07-19T15:54:44.115Z,3.40
2018-07-19T15:57:12.687Z,4.20
2018-07-19T15:59:41.899Z,3.60
2018-07-19T16:02:10.988Z,3.87
2018-07-19T16:04:40.014Z,3.60
2018-07-19T16:07:08.727Z,3.70
2018-07-19T16:09:37.748Z,4.13
2018-07-19T16:12:07.401Z,3.63
2018-07-19T16:14:36.560Z,3.90
2018-07-19T16:17:05.831Z,3.57
2018-07-19T16:19:34.379Z,3.92
2018-07-19T16:22:03.087Z,3.63
2018-07-19T16:24:32.894Z,4.03
2018-07-19T16:27:02.209Z,4.67
2018-07-19T16:29:31.281Z,4.10
2018-07-19T16:31:59.766Z,4.57
2018-07-19T16:34:28.328Z,3.97
2018-07-19T16:36:57.522Z,4.37
2018-07-19T16:39:26.067Z,4.10
2018-07-19T16:41:54.638Z,4.47
2018-07-19T16:44:23.242Z,4.70
2018-07-19T16:46:51.855Z,4.27
2018-07-19T16:49:20.418Z,4.20
2018-07-19T16:51:48.946Z,4.17
2018-07-19T16:54:17.478Z,4.43
2018-07-19T16:56:46.478Z,4.20
2018-07-19T17:09:08.563Z,4.20
2018-07-19T17:11:37.074Z,4.80
2018-07-19T17:14:05.818Z,4.17
2018-07-19T17:16:34.593Z,4.15
2018-07-19T17:19:03.684Z,3.87
2018-07-19T17:21:32.403Z,3.77
2018-07-19T17:24:01.094Z,4.00
2018-07-19T17:26:29.634Z,4.50
2018-07-19T17:28:58.804Z,4.13
2018-07-19T17:31:28.129Z,4.97
2018-07-19T17:33:56.764Z,4.13
2018-07-19T17:36:26.827Z,4.25
2018-07-19T17:38:55.470Z,4.50
2018-07-19T17:41:24.142Z,4.15
2018-07-19T17:43:52.643Z,4.60
2018-07-19T17:46:21.350Z,4.37
2018-07-19T17:48:51.218Z,3.63
2018-07-19T17:51:20.680Z,4.67
2018-07-19T17:53:49.681Z,4.43
2018-07-19T17:56:18.400Z,4.30
2018-07-19T17:58:47.842Z,4.10
2018-07-19T18:01:17.905Z,4.43
2018-07-19T18:03:47.375Z,4.60
2018-07-19T18:06:16.635Z,4.70
2018-07-19T18:08:45.238Z,4.50
2018-07-19T18:11:14.720Z,5.07
2018-07-19T18:13:42.901Z,4.97
2018-07-19T18:16:11.933Z,5.40
2018-07-19T18:18:41.991Z,5.37
2018-07-19T18:21:10.529Z,4.03
2018-07-19T18:23:39.092Z,4.10
2018-07-19T18:26:07.797Z,4.63
2018-07-19T18:28:36.369Z,4.40
2018-07-19T18:31:04.934Z,4.70
2018-07-19T18:33:34.196Z,3.95
2018-07-19T18:36:03.008Z,5.00
2018-07-19T18:38:31.916Z,4.90
2018-07-19T18:41:03.443Z,4.60
2018-07-19T18:43:31.955Z,4.80
2018-07-19T18:46:00.558Z,4.55
2018-07-19T18:48:29.069Z,4.50
2018-07-19T18:50:57.594Z,4.70
2018-07-19T18:53:26.101Z,4.73
2018-07-19T18:55:55.225Z,4.67
2018-07-19T18:58:23.741Z,5.10
2018-07-19T19:00:52.935Z,5.23
2018-07-19T19:03:21.430Z,5.27
2018-07-19T19:05:49.989Z,5.20
2018-07-19T19:08:18.293Z,4.50
2018-07-19T19:10:46.771Z,4.93
2018-07-19T19:13:16.473Z,5.15
2018-07-19T19:15:45.078Z,5.77
2018-07-19T19:18:13.690Z,6.57
2018-07-19T19:20:42.378Z,5.47
2018-07-19T19:23:11.358Z,6.17
2018-07-19T19:25:39.990Z,6.30
2018-07-19T19:28:08.600Z,6.05
2018-07-19T19:30:37.157Z,6.20
2018-07-19T19:33:05.461Z,5.90
2018-07-19T19:35:34.342Z,6.83
2018-07-19T19:38:02.899Z,6.87
2018-07-19T19:40:31.442Z,6.67
2018-07-19T19:42:59.952Z,6.30
2018-07-19T19:45:28.885Z,6.30
2018-07-19T19:47:58.128Z,5.75
2018-07-19T19:50:26.672Z,6.30
2018-07-19T19:52:55.458Z,7.30
2018-07-19T19:55:24.002Z,6.90
2018-07-19T19:57:52.643Z,7.42
2018-07-19T20:00:21.222Z,7.62
2018-07-19T20:02:49.779Z,7.27
2018-07-19T20:05:18.483Z,6.83
2018-07-19T20:07:47.072Z,7.60
2018-07-19T20:10:17.430Z,6.87
2018-07-19T20:12:45.934Z,6.23
2018-07-19T20:27:41.654Z,7.53
2018-07-19T20:30:10.285Z,7.33
2018-07-19T20:32:39.245Z,7.43
2018-07-19T20:35:07.790Z,7.20
2018-07-19T20:37:37.049Z,6.60
2018-07-19T20:40:05.622Z,8.20
2018-07-19T20:42:34.148Z,7.53
2018-07-19T20:45:02.798Z,6.80
2018-07-19T20:47:32.255Z,7.33
2018-07-19T20:50:00.834Z,7.00
2018-07-19T20:52:29.426Z,6.80
2018-07-19T20:54:58.158Z,7.13
2018-07-19T20:57:26.663Z,7.00
2018-07-19T20:59:55.379Z,7.07
2018-07-19T21:02:24.157Z,7.20
2018-07-19T21:04:52.736Z,8.00
2018-07-19T21:07:21.914Z,9.28
2018-07-19T21:09:50.721Z,10.30
2018-07-19T21:12:19.679Z,8.00
2018-07-19T21:14:48.309Z,7.20
2018-07-19T21:17:17.677Z,7.23
2018-07-19T21:19:46.838Z,8.30
2018-07-19T21:22:16.726Z,7.30
2018-07-19T21:24:45.518Z,7.37
2018-07-19T21:27:15.690Z,7.92
2018-07-19T21:29:44.416Z,8.00
2018-07-19T21:32:13.068Z,8.30
2018-07-19T21:34:41.574Z,7.63
2018-07-19T21:37:10.269Z,7.97
2018-07-19T21:39:39.142Z,7.60
2018-07-19T21:42:07.353Z,7.97
2018-07-19T21:44:35.885Z,8.20
2018-07-19T21:47:04.424Z,7.87
2018-07-19T21:49:32.927Z,8.70
2018-07-19T21:52:01.570Z,8.33
2018-07-19T21:54:30.075Z,9.00
2018-07-19T21:56:58.610Z,8.80
2018-07-19T21:59:27.131Z,9.00
2018-07-19T22:01:55.842Z,8.93
2018-07-19T22:04:24.354Z,10.30
2018-07-19T22:06:52.925Z,9.70
2018-07-19T22:09:22.456Z,10.24
2018-07-19T22:11:51.786Z,10.20
2018-07-19T22:14:20.494Z,11.20
2018-07-19T22:16:49.014Z,9.63
2018-07-19T22:19:17.281Z,9.48
2018-07-19T22:21:45.855Z,10.33
2018-07-19T22:24:15.632Z,10.25
2018-07-19T22:26:44.220Z,9.20
2018-07-19T22:29:12.787Z,10.03
2018-07-19T22:31:41.348Z,9.30
2018-07-19T22:34:09.878Z,9.37
2018-07-19T22:42:23.685Z,9.40
2018-07-19T22:44:52.154Z,9.30
2018-07-19T22:47:20.684Z,9.38
2018-07-19T22:49:49.532Z,9.90
2018-07-19T22:52:18.061Z,10.00
2018-07-19T22:54:46.607Z,10.13
2018-07-19T23:16:58.537Z,9.38
2018-07-19T23:19:27.110Z,10.35
2018-07-19T23:21:57.159Z,12.37
2018-07-19T23:24:25.753Z,11.08
2018-07-19T23:26:54.394Z,11.20
2018-07-19T23:29:22.949Z,12.03
2018-07-19T23:31:51.538Z,10.58
2018-07-19T23:34:20.964Z,10.33
2018-07-19T23:37:01.346Z,11.03
2018-07-19T23:39:33.989Z,11.40
2018-07-19T23:42:08.018Z,12.87
2018-07-19T23:44:42.660Z,12.07
2018-07-19T23:47:14.603Z,11.40
2018-07-19T23:49:43.244Z,10.97
2018-07-19T23:52:12.601Z,10.67
2018-07-19T23:54:41.511Z,11.27
2018-07-19T23:57:10.417Z,12.30
2018-07-19T23:59:39.058Z,11.80
